sensor_id;sensor_type;location;lat;lon;timestamp;P1;durP1;ratioP1;P2;durP2;ratioP2
44270;SDS011;29963;44.594;11.368;2023-08-31T00:01:08;2.63;;;1.35;;
44270;SDS011;29963;44.594;11.368;2023-08-31T00:03:34;2.42;;;1.70;;
44270;SDS011;29963;44.594;11.368;2023-08-31T00:06:03;1.48;;;1.00;;
44270;SDS011;29963;44.594;11.368;2023-08-31T00:08:29;3.33;;;1.05;;
44270;SDS011;29963;44.594;11.368;2023-08-31T00:10:59;2.78;;;0.82;;
44270;SDS011;29963;44.594;11.368;2023-08-31T00:13:25;2.85;;;0.80;;
44270;SDS011;29963;44.594;11.368;2023-08-31T00:15:53;0.93;;;0.90;;
44270;SDS011;29963;44.594;11.368;2023-08-31T00:18:21;1.00;;;0.90;;
44270;SDS011;29963;44.594;11.368;2023-08-31T00:20:47;2.80;;;1.17;;
44270;SDS011;29963;44.594;11.368;2023-08-31T00:23:12;0.75;;;0.73;;
44270;SDS011;29963;44.594;11.368;2023-08-31T00:25:38;1.35;;;0.65;;
44270;SDS011;29963;44.594;11.368;2023-08-31T00:28:04;1.20;;;0.80;;
44270;SDS011;29963;44.594;11.368;2023-08-31T00:30:30;4.47;;;0.90;;
44270;SDS011;29963;44.594;11.368;2023-08-31T00:32:57;1.10;;;1.00;;
44270;SDS011;29963;44.594;11.368;2023-08-31T00:35:25;1.30;;;0.88;;
44270;SDS011;29963;44.594;11.368;2023-08-31T00:37:52;1.00;;;0.82;;
44270;SDS011;29963;44.594;11.368;2023-08-31T00:40:23;2.10;;;0.90;;
44270;SDS011;29963;44.594;11.368;2023-08-31T00:42:49;1.13;;;0.88;;
44270;SDS011;29963;44.594;11.368;2023-08-31T00:45:14;6.28;;;1.30;;
44270;SDS011;29963;44.594;11.368;2023-08-31T00:47:40;0.90;;;0.90;;
44270;SDS011;29963;44.594;11.368;2023-08-31T00:50:07;1.33;;;0.90;;
44270;SDS011;29963;44.594;11.368;2023-08-31T00:52:33;1.30;;;0.95;;
44270;SDS011;29963;44.594;11.368;2023-08-31T00:54:59;2.25;;;0.85;;
44270;SDS011;29963;44.594;11.368;2023-08-31T00:57:28;1.20;;;1.00;;
44270;SDS011;29963;44.594;11.368;2023-08-31T00:59:53;2.35;;;0.95;;
44270;SDS011;29963;44.594;11.368;2023-08-31T01:02:22;2.92;;;1.05;;
44270;SDS011;29963;44.594;11.368;2023-08-31T01:07:49;1.00;;;0.88;;
44270;SDS011;29963;44.594;11.368;2023-08-31T01:15:21;2.55;;;1.00;;
44270;SDS011;29963;44.594;11.368;2023-08-31T01:17:52;0.88;;;0.85;;
44270;SDS011;29963;44.594;11.368;2023-08-31T01:20:25;2.00;;;0.82;;
44270;SDS011;29963;44.594;11.368;2023-08-31T01:23:01;1.55;;;1.15;;
44270;SDS011;29963;44.594;11.368;2023-08-31T01:25:31;2.45;;;1.20;;
44270;SDS011;29963;44.594;11.368;2023-08-31T01:28:01;0.93;;;0.90;;
44270;SDS011;29963;44.594;11.368;2023-08-31T01:30:30;1.52;;;0.77;;
44270;SDS011;29963;44.594;11.368;2023-08-31T01:32:56;1.20;;;0.70;;
44270;SDS011;29963;44.594;11.368;2023-08-31T01:35:21;1.73;;;0.90;;
44270;SDS011;29963;44.594;11.368;2023-08-31T01:37:53;1.80;;;0.90;;
44270;SDS011;29963;44.594;11.368;2023-08-31T01:43:14;1.25;;;1.15;;
44270;SDS011;29963;44.594;11.368;2023-08-31T01:45:42;2.30;;;1.45;;
44270;SDS011;29963;44.594;11.368;2023-08-31T01:48:08;2.20;;;1.08;;
44270;SDS011;29963;44.594;11.368;2023-08-31T01:50:34;3.30;;;1.25;;
44270;SDS011;29963;44.594;11.368;2023-08-31T01:53:00;3.00;;;1.40;;
44270;SDS011;29963;44.594;11.368;2023-08-31T01:55:26;1.42;;;0.88;;
44270;SDS011;29963;44.594;11.368;2023-08-31T01:57:51;0.98;;;0.88;;
44270;SDS011;29963;44.594;11.368;2023-08-31T02:00:18;0.70;;;0.70;;
44270;SDS011;29963;44.594;11.368;2023-08-31T02:02:44;5.25;;;1.05;;
44270;SDS011;29963;44.594;11.368;2023-08-31T02:05:10;1.63;;;1.05;;
44270;SDS011;29963;44.594;11.368;2023-08-31T02:07:35;2.63;;;0.98;;
44270;SDS011;29963;44.594;11.368;2023-08-31T02:10:02;2.42;;;1.20;;
44270;SDS011;29963;44.594;11.368;2023-08-31T02:12:31;0.85;;;0.80;;
44270;SDS011;29963;44.594;11.368;2023-08-31T02:14:57;2.13;;;1.20;;
44270;SDS011;29963;44.594;11.368;2023-08-31T02:17:22;1.73;;;0.90;;
44270;SDS011;29963;44.594;11.368;2023-08-31T02:19:48;3.10;;;1.30;;
44270;SDS011;29963;44.594;11.368;2023-08-31T02:22:13;1.40;;;1.27;;
44270;SDS011;29963;44.594;11.368;2023-08-31T02:24:39;2.28;;;1.20;;
44270;SDS011;29963;44.594;11.368;2023-08-31T02:27:04;4.28;;;1.08;;
44270;SDS011;29963;44.594;11.368;2023-08-31T02:29:30;2.10;;;1.30;;
44270;SDS011;29963;44.594;11.368;2023-08-31T02:31:56;3.60;;;1.42;;
44270;SDS011;29963;44.594;11.368;2023-08-31T02:34:21;3.63;;;1.10;;
44270;SDS011;29963;44.594;11.368;2023-08-31T02:36:47;1.38;;;1.25;;
44270;SDS011;29963;44.594;11.368;2023-08-31T02:39:12;1.85;;;1.65;;
44270;SDS011;29963;44.594;11.368;2023-08-31T02:41:38;0.98;;;0.98;;
44270;SDS011;29963;44.594;11.368;2023-08-31T02:44:04;1.83;;;0.90;;
44270;SDS011;29963;44.594;11.368;2023-08-31T02:46:30;4.30;;;0.80;;
44270;SDS011;29963;44.594;11.368;2023-08-31T02:48:56;1.77;;;0.90;;
44270;SDS011;29963;44.594;11.368;2023-08-31T02:51:21;3.60;;;1.17;;
44270;SDS011;29963;44.594;11.368;2023-08-31T02:53:47;1.70;;;1.27;;
44270;SDS011;29963;44.594;11.368;2023-08-31T02:56:13;3.30;;;1.00;;
44270;SDS011;29963;44.594;11.368;2023-08-31T02:58:39;1.88;;;1.10;;
44270;SDS011;29963;44.594;11.368;2023-08-31T03:01:09;1.30;;;0.93;;
44270;SDS011;29963;44.594;11.368;2023-08-31T03:03:38;2.75;;;1.00;;
44270;SDS011;29963;44.594;11.368;2023-08-31T03:06:07;1.75;;;0.98;;
44270;SDS011;29963;44.594;11.368;2023-08-31T03:08:34;2.38;;;1.15;;
44270;SDS011;29963;44.594;11.368;2023-08-31T03:11:02;3.50;;;1.70;;
44270;SDS011;29963;44.594;11.368;2023-08-31T03:13:29;2.53;;;1.20;;
44270;SDS011;29963;44.594;11.368;2023-08-31T03:15:54;3.13;;;1.05;;
44270;SDS011;29963;44.594;11.368;2023-08-31T03:18:21;2.25;;;1.27;;
44270;SDS011;29963;44.594;11.368;2023-08-31T03:20:47;1.17;;;1.08;;
44270;SDS011;29963;44.594;11.368;2023-08-31T03:23:13;3.38;;;1.20;;
44270;SDS011;29963;44.594;11.368;2023-08-31T03:25:38;1.60;;;1.40;;
44270;SDS011;29963;44.594;11.368;2023-08-31T03:28:04;1.23;;;1.00;;
44270;SDS011;29963;44.594;11.368;2023-08-31T03:30:29;2.38;;;1.25;;
44270;SDS011;29963;44.594;11.368;2023-08-31T03:32:55;1.30;;;1.00;;
44270;SDS011;29963;44.594;11.368;2023-08-31T03:35:21;0.85;;;0.75;;
44270;SDS011;29963;44.594;11.368;2023-08-31T03:37:51;1.52;;;0.95;;
44270;SDS011;29963;44.594;11.368;2023-08-31T03:40:17;2.47;;;0.95;;
44270;SDS011;29963;44.594;11.368;2023-08-31T03:42:43;1.20;;;1.10;;
44270;SDS011;29963;44.594;11.368;2023-08-31T03:45:08;1.75;;;1.40;;
44270;SDS011;29963;44.594;11.368;2023-08-31T03:47:34;1.73;;;0.90;;
44270;SDS011;29963;44.594;11.368;2023-08-31T03:50:00;2.25;;;0.90;;
44270;SDS011;29963;44.594;11.368;2023-08-31T03:52:25;1.45;;;0.80;;
44270;SDS011;29963;44.594;11.368;2023-08-31T03:54:51;3.08;;;1.35;;
44270;SDS011;29963;44.594;11.368;2023-08-31T03:57:17;1.80;;;1.08;;
44270;SDS011;29963;44.594;11.368;2023-08-31T03:59:43;1.42;;;0.80;;
44270;SDS011;29963;44.594;11.368;2023-08-31T04:02:08;2.47;;;1.00;;
44270;SDS011;29963;44.594;11.368;2023-08-31T04:04:34;2.10;;;1.05;;
44270;SDS011;29963;44.594;11.368;2023-08-31T04:07:00;1.08;;;1.00;;
44270;SDS011;29963;44.594;11.368;2023-08-31T04:09:25;2.38;;;1.10;;
44270;SDS011;29963;44.594;11.368;2023-08-31T04:11:51;5.75;;;1.20;;
44270;SDS011;29963;44.594;11.368;2023-08-31T04:14:17;0.90;;;0.90;;
44270;SDS011;29963;44.594;11.368;2023-08-31T04:16:43;1.15;;;0.93;;
44270;SDS011;29963;44.594;11.368;2023-08-31T04:19:09;1.98;;;1.00;;
44270;SDS011;29963;44.594;11.368;2023-08-31T04:21:35;0.95;;;0.82;;
44270;SDS011;29963;44.594;11.368;2023-08-31T04:24:02;0.95;;;0.93;;
44270;SDS011;29963;44.594;11.368;2023-08-31T04:26:28;2.55;;;1.20;;
44270;SDS011;29963;44.594;11.368;2023-08-31T04:28:54;0.88;;;0.88;;
44270;SDS011;29963;44.594;11.368;2023-08-31T04:31:20;1.92;;;0.80;;
44270;SDS011;29963;44.594;11.368;2023-08-31T04:33:46;2.28;;;1.10;;
44270;SDS011;29963;44.594;11.368;2023-08-31T04:36:12;4.10;;;1.13;;
44270;SDS011;29963;44.594;11.368;2023-08-31T04:38:37;2.35;;;1.23;;
44270;SDS011;29963;44.594;11.368;2023-08-31T04:41:03;1.45;;;1.10;;
44270;SDS011;29963;44.594;11.368;2023-08-31T04:43:29;1.55;;;1.00;;
44270;SDS011;29963;44.594;11.368;2023-08-31T04:45:55;2.90;;;1.15;;
44270;SDS011;29963;44.594;11.368;2023-08-31T04:48:21;2.90;;;0.93;;
44270;SDS011;29963;44.594;11.368;2023-08-31T04:50:47;0.80;;;0.80;;
44270;SDS011;29963;44.594;11.368;2023-08-31T04:53:12;1.42;;;0.90;;
44270;SDS011;29963;44.594;11.368;2023-08-31T04:55:38;2.13;;;1.33;;
44270;SDS011;29963;44.594;11.368;2023-08-31T04:58:04;2.55;;;1.15;;
44270;SDS011;29963;44.594;11.368;2023-08-31T05:00:30;6.32;;;1.20;;
44270;SDS011;29963;44.594;11.368;2023-08-31T05:02:56;1.10;;;1.00;;
44270;SDS011;29963;44.594;11.368;2023-08-31T05:05:21;3.10;;;1.10;;
44270;SDS011;29963;44.594;11.368;2023-08-31T05:07:47;1.80;;;1.00;;
44270;SDS011;29963;44.594;11.368;2023-08-31T05:10:13;3.20;;;1.17;;
44270;SDS011;29963;44.594;11.368;2023-08-31T05:12:39;2.55;;;1.08;;
44270;SDS011;29963;44.594;11.368;2023-08-31T05:15:04;1.80;;;1.02;;
44270;SDS011;29963;44.594;11.368;2023-08-31T05:17:30;2.63;;;1.40;;
44270;SDS011;29963;44.594;11.368;2023-08-31T05:19:56;0.80;;;0.80;;
44270;SDS011;29963;44.594;11.368;2023-08-31T05:22:22;1.95;;;1.20;;
44270;SDS011;29963;44.594;11.368;2023-08-31T05:24:48;2.45;;;0.80;;
44270;SDS011;29963;44.594;11.368;2023-08-31T05:27:14;1.23;;;1.10;;
44270;SDS011;29963;44.594;11.368;2023-08-31T05:29:39;2.65;;;1.33;;
44270;SDS011;29963;44.594;11.368;2023-08-31T05:32:05;4.93;;;1.38;;
44270;SDS011;29963;44.594;11.368;2023-08-31T05:34:31;1.67;;;1.58;;
44270;SDS011;29963;44.594;11.368;2023-08-31T05:36:59;2.70;;;1.05;;
44270;SDS011;29963;44.594;11.368;2023-08-31T05:39:25;1.10;;;1.00;;
44270;SDS011;29963;44.594;11.368;2023-08-31T05:41:50;1.80;;;1.33;;
44270;SDS011;29963;44.594;11.368;2023-08-31T05:44:16;1.27;;;0.90;;
44270;SDS011;29963;44.594;11.368;2023-08-31T05:46:42;3.80;;;1.30;;
44270;SDS011;29963;44.594;11.368;2023-08-31T05:49:07;1.33;;;0.85;;
44270;SDS011;29963;44.594;11.368;2023-08-31T05:51:33;1.42;;;1.00;;
44270;SDS011;29963;44.594;11.368;2023-08-31T05:53:59;2.45;;;1.13;;
44270;SDS011;29963;44.594;11.368;2023-08-31T05:56:25;1.88;;;1.17;;
44270;SDS011;29963;44.594;11.368;2023-08-31T05:58:50;4.45;;;1.13;;
44270;SDS011;29963;44.594;11.368;2023-08-31T06:01:19;1.73;;;0.80;;
44270;SDS011;29963;44.594;11.368;2023-08-31T06:03:46;3.45;;;1.33;;
44270;SDS011;29963;44.594;11.368;2023-08-31T06:06:11;1.20;;;1.10;;
44270;SDS011;29963;44.594;11.368;2023-08-31T06:08:37;3.05;;;1.30;;
44270;SDS011;29963;44.594;11.368;2023-08-31T06:11:03;3.30;;;1.05;;
44270;SDS011;29963;44.594;11.368;2023-08-31T06:13:28;3.40;;;1.20;;
44270;SDS011;29963;44.594;11.368;2023-08-31T06:15:54;1.10;;;1.00;;
44270;SDS011;29963;44.594;11.368;2023-08-31T06:18:24;2.65;;;1.10;;
44270;SDS011;29963;44.594;11.368;2023-08-31T06:20:50;1.48;;;1.10;;
44270;SDS011;29963;44.594;11.368;2023-08-31T06:23:16;1.45;;;1.20;;
44270;SDS011;29963;44.594;11.368;2023-08-31T06:25:41;3.20;;;1.40;;
44270;SDS011;29963;44.594;11.368;2023-08-31T06:28:07;1.98;;;1.30;;
44270;SDS011;29963;44.594;11.368;2023-08-31T06:30:36;2.63;;;1.23;;
44270;SDS011;29963;44.594;11.368;2023-08-31T06:33:02;2.45;;;1.45;;
44270;SDS011;29963;44.594;11.368;2023-08-31T06:35:27;2.67;;;1.00;;
44270;SDS011;29963;44.594;11.368;2023-08-31T06:37:53;2.05;;;1.30;;
44270;SDS011;29963;44.594;11.368;2023-08-31T06:40:21;2.03;;;1.30;;
44270;SDS011;29963;44.594;11.368;2023-08-31T06:42:46;2.50;;;1.10;;
44270;SDS011;29963;44.594;11.368;2023-08-31T06:45:12;3.30;;;1.10;;
44270;SDS011;29963;44.594;11.368;2023-08-31T06:47:38;4.25;;;0.88;;
44270;SDS011;29963;44.594;11.368;2023-08-31T06:50:03;6.10;;;1.42;;
44270;SDS011;29963;44.594;11.368;2023-08-31T06:52:30;5.30;;;1.25;;
44270;SDS011;29963;44.594;11.368;2023-08-31T06:54:55;2.13;;;1.15;;
44270;SDS011;29963;44.594;11.368;2023-08-31T06:57:24;1.55;;;1.00;;
44270;SDS011;29963;44.594;11.368;2023-08-31T06:59:51;3.65;;;1.20;;
44270;SDS011;29963;44.594;11.368;2023-08-31T07:02:17;2.00;;;1.25;;
44270;SDS011;29963;44.594;11.368;2023-08-31T07:04:44;3.25;;;1.70;;
44270;SDS011;29963;44.594;11.368;2023-08-31T07:07:10;3.15;;;1.40;;
44270;SDS011;29963;44.594;11.368;2023-08-31T07:09:36;2.22;;;1.02;;
44270;SDS011;29963;44.594;11.368;2023-08-31T07:12:01;6.65;;;1.48;;
44270;SDS011;29963;44.594;11.368;2023-08-31T07:14:27;1.10;;;0.90;;
44270;SDS011;29963;44.594;11.368;2023-08-31T07:16:53;3.58;;;1.60;;
44270;SDS011;29963;44.594;11.368;2023-08-31T07:19:18;8.95;;;1.73;;
44270;SDS011;29963;44.594;11.368;2023-08-31T07:21:44;3.25;;;1.75;;
44270;SDS011;29963;44.594;11.368;2023-08-31T07:24:10;5.05;;;1.73;;
44270;SDS011;29963;44.594;11.368;2023-08-31T07:26:35;7.38;;;1.80;;
44270;SDS011;29963;44.594;11.368;2023-08-31T07:29:01;3.58;;;1.65;;
44270;SDS011;29963;44.594;11.368;2023-08-31T07:31:30;4.93;;;1.63;;
44270;SDS011;29963;44.594;11.368;2023-08-31T07:33:57;3.80;;;2.28;;
44270;SDS011;29963;44.594;11.368;2023-08-31T07:36:23;4.63;;;1.40;;
44270;SDS011;29963;44.594;11.368;2023-08-31T07:38:49;3.35;;;1.75;;
44270;SDS011;29963;44.594;11.368;2023-08-31T07:41:15;3.78;;;1.63;;
44270;SDS011;29963;44.594;11.368;2023-08-31T07:43:40;1.58;;;1.30;;
44270;SDS011;29963;44.594;11.368;2023-08-31T07:46:06;2.95;;;1.90;;
44270;SDS011;29963;44.594;11.368;2023-08-31T07:48:31;2.10;;;1.52;;
44270;SDS011;29963;44.594;11.368;2023-08-31T07:50:57;5.28;;;1.98;;
44270;SDS011;29963;44.594;11.368;2023-08-31T07:53:23;8.30;;;2.40;;
44270;SDS011;29963;44.594;11.368;2023-08-31T07:55:55;4.13;;;2.10;;
44270;SDS011;29963;44.594;11.368;2023-08-31T07:58:23;3.65;;;2.50;;
44270;SDS011;29963;44.594;11.368;2023-08-31T08:00:54;3.60;;;2.80;;
44270;SDS011;29963;44.594;11.368;2023-08-31T08:03:23;3.72;;;2.58;;
44270;SDS011;29963;44.594;11.368;2023-08-31T08:05:49;8.52;;;2.80;;
44270;SDS011;29963;44.594;11.368;2023-08-31T08:08:14;8.52;;;2.10;;
44270;SDS011;29963;44.594;11.368;2023-08-31T08:10:40;5.07;;;3.05;;
44270;SDS011;29963;44.594;11.368;2023-08-31T08:13:06;8.63;;;2.80;;
44270;SDS011;29963;44.594;11.368;2023-08-31T08:15:31;4.47;;;3.08;;
44270;SDS011;29963;44.594;11.368;2023-08-31T08:17:57;4.20;;;2.83;;
44270;SDS011;29963;44.594;11.368;2023-08-31T08:20:23;7.93;;;4.03;;
44270;SDS011;29963;44.594;11.368;2023-08-31T08:22:49;5.53;;;3.47;;
44270;SDS011;29963;44.594;11.368;2023-08-31T08:25:19;5.20;;;3.65;;
44270;SDS011;29963;44.594;11.368;2023-08-31T08:27:45;7.82;;;3.70;;
44270;SDS011;29963;44.594;11.368;2023-08-31T08:30:11;7.88;;;4.57;;
44270;SDS011;29963;44.594;11.368;2023-08-31T08:32:37;4.97;;;3.63;;
44270;SDS011;29963;44.594;11.368;2023-08-31T08:35:03;4.03;;;3.63;;
44270;SDS011;29963;44.594;11.368;2023-08-31T08:37:29;5.68;;;3.47;;
44270;SDS011;29963;44.594;11.368;2023-08-31T08:39:57;6.82;;;3.97;;
44270;SDS011;29963;44.594;11.368;2023-08-31T08:42:23;6.68;;;3.97;;
44270;SDS011;29963;44.594;11.368;2023-08-31T08:44:50;5.65;;;3.78;;
44270;SDS011;29963;44.594;11.368;2023-08-31T08:47:15;6.32;;;4.18;;
44270;SDS011;29963;44.594;11.368;2023-08-31T08:49:42;6.82;;;5.00;;
44270;SDS011;29963;44.594;11.368;2023-08-31T08:52:08;6.47;;;3.90;;
44270;SDS011;29963;44.594;11.368;2023-08-31T08:54:34;8.00;;;3.85;;
44270;SDS011;29963;44.594;11.368;2023-08-31T08:57:00;6.22;;;3.72;;
44270;SDS011;29963;44.594;11.368;2023-08-31T08:59:26;7.18;;;3.92;;
44270;SDS011;29963;44.594;11.368;2023-08-31T09:01:52;3.50;;;3.15;;
44270;SDS011;29963;44.594;11.368;2023-08-31T09:04:18;3.85;;;3.13;;
44270;SDS011;29963;44.594;11.368;2023-08-31T09:06:44;4.60;;;2.70;;
44270;SDS011;29963;44.594;11.368;2023-08-31T09:09:10;4.43;;;2.80;;
44270;SDS011;29963;44.594;11.368;2023-08-31T09:11:36;6.72;;;2.90;;
44270;SDS011;29963;44.594;11.368;2023-08-31T09:14:20;4.55;;;3.20;;
44270;SDS011;29963;44.594;11.368;2023-08-31T09:16:46;9.07;;;2.75;;
44270;SDS011;29963;44.594;11.368;2023-08-31T09:19:19;5.53;;;3.10;;
44270;SDS011;29963;44.594;11.368;2023-08-31T09:21:47;7.55;;;2.85;;
44270;SDS011;29963;44.594;11.368;2023-08-31T09:24:14;4.97;;;2.53;;
44270;SDS011;29963;44.594;11.368;2023-08-31T09:27:15;5.93;;;2.47;;
44270;SDS011;29963;44.594;11.368;2023-08-31T09:29:37;4.18;;;2.95;;
44270;SDS011;29963;44.594;11.368;2023-08-31T09:32:03;12.73;;;2.83;;
44270;SDS011;29963;44.594;11.368;2023-08-31T09:34:32;4.60;;;2.70;;
44270;SDS011;29963;44.594;11.368;2023-08-31T09:37:03;8.43;;;2.30;;
44270;SDS011;29963;44.594;11.368;2023-08-31T09:39:35;4.18;;;2.22;;
44270;SDS011;29963;44.594;11.368;2023-08-31T09:42:02;7.22;;;2.97;;
44270;SDS011;29963;44.594;11.368;2023-08-31T09:44:28;3.88;;;2.58;;
44270;SDS011;29963;44.594;11.368;2023-08-31T09:46:54;4.22;;;1.92;;
44270;SDS011;29963;44.594;11.368;2023-08-31T09:49:20;3.10;;;2.17;;
44270;SDS011;29963;44.594;11.368;2023-08-31T09:51:46;5.32;;;2.47;;
44270;SDS011;29963;44.594;11.368;2023-08-31T09:54:15;2.63;;;1.63;;
44270;SDS011;29963;44.594;11.368;2023-08-31T09:56:42;4.70;;;1.67;;
44270;SDS011;29963;44.594;11.368;2023-08-31T09:59:09;6.70;;;2.50;;
44270;SDS011;29963;44.594;11.368;2023-08-31T10:01:36;2.28;;;1.48;;
44270;SDS011;29963;44.594;11.368;2023-08-31T10:04:02;5.35;;;2.22;;
44270;SDS011;29963;44.594;11.368;2023-08-31T10:06:30;5.03;;;1.92;;
44270;SDS011;29963;44.594;11.368;2023-08-31T10:08:57;3.55;;;2.20;;
44270;SDS011;29963;44.594;11.368;2023-08-31T10:11:24;3.70;;;2.13;;
44270;SDS011;29963;44.594;11.368;2023-08-31T10:13:50;5.32;;;2.00;;
44270;SDS011;29963;44.594;11.368;2023-08-31T10:16:19;5.95;;;2.15;;
44270;SDS011;29963;44.594;11.368;2023-08-31T10:18:45;4.03;;;1.45;;
44270;SDS011;29963;44.594;11.368;2023-08-31T10:21:10;3.30;;;1.35;;
44270;SDS011;29963;44.594;11.368;2023-08-31T10:23:47;3.20;;;1.40;;
44270;SDS011;29963;44.594;11.368;2023-08-31T10:26:23;1.90;;;1.10;;
44270;SDS011;29963;44.594;11.368;2023-08-31T10:28:51;1.67;;;1.55;;
44270;SDS011;29963;44.594;11.368;2023-08-31T10:31:17;6.07;;;1.85;;
44270;SDS011;29963;44.594;11.368;2023-08-31T10:33:44;1.92;;;1.02;;
44270;SDS011;29963;44.594;11.368;2023-08-31T10:39:16;4.35;;;2.47;;
44270;SDS011;29963;44.594;11.368;2023-08-31T10:41:53;1.98;;;1.73;;
44270;SDS011;29963;44.594;11.368;2023-08-31T10:44:24;1.77;;;1.42;;
44270;SDS011;29963;44.594;11.368;2023-08-31T10:46:51;1.38;;;1.23;;
44270;SDS011;29963;44.594;11.368;2023-08-31T10:49:18;4.05;;;1.75;;
44270;SDS011;29963;44.594;11.368;2023-08-31T10:54:41;3.35;;;1.73;;
44270;SDS011;29963;44.594;11.368;2023-08-31T10:57:07;1.58;;;1.20;;
44270;SDS011;29963;44.594;11.368;2023-08-31T10:59:43;2.38;;;1.42;;
44270;SDS011;29963;44.594;11.368;2023-08-31T11:02:10;2.95;;;1.30;;
44270;SDS011;29963;44.594;11.368;2023-08-31T11:04:53;3.15;;;1.95;;
44270;SDS011;29963;44.594;11.368;2023-08-31T11:07:26;2.92;;;1.50;;
44270;SDS011;29963;44.594;11.368;2023-08-31T11:09:52;4.15;;;1.45;;
44270;SDS011;29963;44.594;11.368;2023-08-31T11:12:31;1.92;;;1.05;;
44270;SDS011;29963;44.594;11.368;2023-08-31T11:14:57;5.88;;;3.30;;
44270;SDS011;29963;44.594;11.368;2023-08-31T11:17:23;4.15;;;1.38;;
44270;SDS011;29963;44.594;11.368;2023-08-31T11:19:49;2.72;;;1.17;;
44270;SDS011;29963;44.594;11.368;2023-08-31T11:22:15;1.42;;;0.90;;
44270;SDS011;29963;44.594;11.368;2023-08-31T11:24:40;3.08;;;1.52;;
44270;SDS011;29963;44.594;11.368;2023-08-31T11:27:09;5.68;;;1.58;;
44270;SDS011;29963;44.594;11.368;2023-08-31T11:29:38;4.03;;;1.13;;
44270;SDS011;29963;44.594;11.368;2023-08-31T11:32:07;4.95;;;1.77;;
44270;SDS011;29963;44.594;11.368;2023-08-31T11:34:33;2.55;;;1.10;;
44270;SDS011;29963;44.594;11.368;2023-08-31T11:36:59;2.60;;;1.38;;
44270;SDS011;29963;44.594;11.368;2023-08-31T11:39:25;1.95;;;1.13;;
44270;SDS011;29963;44.594;11.368;2023-08-31T11:41:51;2.33;;;1.30;;
44270;SDS011;29963;44.594;11.368;2023-08-31T11:44:16;3.17;;;1.00;;
44270;SDS011;29963;44.594;11.368;2023-08-31T11:46:43;2.80;;;1.63;;
44270;SDS011;29963;44.594;11.368;2023-08-31T11:49:15;4.68;;;1.38;;
44270;SDS011;29963;44.594;11.368;2023-08-31T11:51:42;1.58;;;0.95;;
44270;SDS011;29963;44.594;11.368;2023-08-31T11:54:09;3.67;;;1.27;;
44270;SDS011;29963;44.594;11.368;2023-08-31T11:56:39;1.27;;;0.93;;
44270;SDS011;29963;44.594;11.368;2023-08-31T11:59:08;4.47;;;1.67;;
44270;SDS011;29963;44.594;11.368;2023-08-31T12:01:39;3.00;;;1.30;;
44270;SDS011;29963;44.594;11.368;2023-08-31T12:04:12;4.45;;;1.30;;
44270;SDS011;29963;44.594;11.368;2023-08-31T12:06:39;3.42;;;1.35;;
44270;SDS011;29963;44.594;11.368;2023-08-31T12:09:07;3.97;;;1.55;;
44270;SDS011;29963;44.594;11.368;2023-08-31T12:11:33;3.97;;;1.30;;
44270;SDS011;29963;44.594;11.368;2023-08-31T12:14:03;2.42;;;1.20;;
44270;SDS011;29963;44.594;11.368;2023-08-31T12:16:43;4.97;;;1.40;;
44270;SDS011;29963;44.594;11.368;2023-08-31T12:19:09;4.68;;;1.67;;
44270;SDS011;29963;44.594;11.368;2023-08-31T12:21:35;4.43;;;1.00;;
44270;SDS011;29963;44.594;11.368;2023-08-31T12:24:00;2.95;;;1.38;;
44270;SDS011;29963;44.594;11.368;2023-08-31T12:26:28;3.08;;;1.17;;
44270;SDS011;29963;44.594;11.368;2023-08-31T12:28:54;3.42;;;1.40;;
44270;SDS011;29963;44.594;11.368;2023-08-31T12:31:20;3.70;;;1.20;;
44270;SDS011;29963;44.594;11.368;2023-08-31T12:36:13;4.83;;;1.07;;
44270;SDS011;29963;44.594;11.368;2023-08-31T12:38:38;2.92;;;1.25;;
44270;SDS011;29963;44.594;11.368;2023-08-31T12:41:04;2.03;;;0.90;;
44270;SDS011;29963;44.594;11.368;2023-08-31T12:43:30;3.90;;;0.95;;
44270;SDS011;29963;44.594;11.368;2023-08-31T12:45:56;2.33;;;0.80;;
44270;SDS011;29963;44.594;11.368;2023-08-31T12:48:22;5.28;;;1.25;;
44270;SDS011;29963;44.594;11.368;2023-08-31T12:50:48;5.68;;;1.40;;
44270;SDS011;29963;44.594;11.368;2023-08-31T12:53:14;1.42;;;0.85;;
44270;SDS011;29963;44.594;11.368;2023-08-31T12:55:40;1.63;;;0.90;;
44270;SDS011;29963;44.594;11.368;2023-08-31T12:58:05;5.05;;;1.13;;
44270;SDS011;29963;44.594;11.368;2023-08-31T13:00:31;1.42;;;0.98;;
44270;SDS011;29963;44.594;11.368;2023-08-31T13:02:57;3.17;;;1.00;;
44270;SDS011;29963;44.594;11.368;2023-08-31T13:05:22;2.55;;;1.00;;
44270;SDS011;29963;44.594;11.368;2023-08-31T13:07:48;2.50;;;1.13;;
44270;SDS011;29963;44.594;11.368;2023-08-31T13:10:14;3.30;;;1.15;;
44270;SDS011;29963;44.594;11.368;2023-08-31T13:12:39;2.90;;;1.20;;
44270;SDS011;29963;44.594;11.368;2023-08-31T13:15:05;2.50;;;0.98;;
44270;SDS011;29963;44.594;11.368;2023-08-31T13:17:33;2.17;;;1.27;;
44270;SDS011;29963;44.594;11.368;2023-08-31T13:19:58;2.35;;;1.08;;
44270;SDS011;29963;44.594;11.368;2023-08-31T13:22:24;1.10;;;1.05;;
44270;SDS011;29963;44.594;11.368;2023-08-31T13:24:50;2.42;;;1.20;;
44270;SDS011;29963;44.594;11.368;2023-08-31T13:27:17;2.97;;;1.08;;
44270;SDS011;29963;44.594;11.368;2023-08-31T13:29:43;0.88;;;0.80;;
44270;SDS011;29963;44.594;11.368;2023-08-31T13:32:09;1.52;;;0.93;;
44270;SDS011;29963;44.594;11.368;2023-08-31T13:34:35;3.25;;;0.98;;
44270;SDS011;29963;44.594;11.368;2023-08-31T13:37:04;1.63;;;0.82;;
44270;SDS011;29963;44.594;11.368;2023-08-31T13:39:30;0.70;;;0.70;;
44270;SDS011;29963;44.594;11.368;2023-08-31T13:42:01;1.30;;;0.57;;
44270;SDS011;29963;44.594;11.368;2023-08-31T13:44:28;1.35;;;0.80;;
44270;SDS011;29963;44.594;11.368;2023-08-31T13:46:54;2.90;;;1.20;;
44270;SDS011;29963;44.594;11.368;2023-08-31T13:49:20;4.60;;;1.10;;
44270;SDS011;29963;44.594;11.368;2023-08-31T13:51:45;2.92;;;0.88;;
44270;SDS011;29963;44.594;11.368;2023-08-31T13:54:11;1.80;;;1.10;;
44270;SDS011;29963;44.594;11.368;2023-08-31T13:56:36;0.77;;;0.73;;
44270;SDS011;29963;44.594;11.368;2023-08-31T13:59:02;3.00;;;1.40;;
44270;SDS011;29963;44.594;11.368;2023-08-31T14:01:28;3.13;;;1.05;;
44270;SDS011;29963;44.594;11.368;2023-08-31T14:03:53;2.15;;;1.20;;
44270;SDS011;29963;44.594;11.368;2023-08-31T14:06:19;3.22;;;1.02;;
44270;SDS011;29963;44.594;11.368;2023-08-31T14:08:44;3.45;;;1.45;;
44270;SDS011;29963;44.594;11.368;2023-08-31T14:11:10;5.18;;;1.35;;
44270;SDS011;29963;44.594;11.368;2023-08-31T14:13:36;4.40;;;2.10;;
44270;SDS011;29963;44.594;11.368;2023-08-31T14:16:01;4.95;;;1.70;;
44270;SDS011;29963;44.594;11.368;2023-08-31T14:18:28;2.80;;;1.00;;
44270;SDS011;29963;44.594;11.368;2023-08-31T14:20:55;5.15;;;1.17;;
44270;SDS011;29963;44.594;11.368;2023-08-31T14:23:21;4.63;;;1.50;;
44270;SDS011;29963;44.594;11.368;2023-08-31T14:25:47;2.35;;;1.05;;
44270;SDS011;29963;44.594;11.368;2023-08-31T14:28:12;2.50;;;0.98;;
44270;SDS011;29963;44.594;11.368;2023-08-31T14:30:38;1.75;;;1.10;;
44270;SDS011;29963;44.594;11.368;2023-08-31T14:33:04;1.55;;;0.90;;
44270;SDS011;29963;44.594;11.368;2023-08-31T14:35:30;3.25;;;0.77;;
44270;SDS011;29963;44.594;11.368;2023-08-31T14:37:56;4.03;;;1.20;;
44270;SDS011;29963;44.594;11.368;2023-08-31T14:40:23;2.15;;;1.30;;
44270;SDS011;29963;44.594;11.368;2023-08-31T14:42:49;2.97;;;1.05;;
44270;SDS011;29963;44.594;11.368;2023-08-31T14:45:14;1.92;;;1.00;;
44270;SDS011;29963;44.594;11.368;2023-08-31T14:47:40;3.80;;;1.02;;
44270;SDS011;29963;44.594;11.368;2023-08-31T14:50:05;3.90;;;0.77;;